QFA281 YSCB-YSSY
Flight info
| Callsign | QFA281 |
|---|---|
| Flight time | 0h 29m |
| Altitude | 17000 |
| Route | CB W423 CULIN Y59 TESAT |
| Aircraft | B738/M-SDE2E3FGHIRWXY/LB1 |
Departure
| Time | 2026-05-05 09:16 |
|---|---|
| Airport | Canberra Airport (YSCB) |
Arrival
| Time | 2026-05-05 09:45 |
|---|---|
| Airport | Sydney Kingsford Smith International Airport (YSSY) |
| Time | Latitude | Longitude | Altitude | Speed | Heading |
|---|---|---|---|---|---|
| 2026-05-05 08:54 | -35.30796 | 149.19148 | 1873 ft | 0 kts | 270° |
| 2026-05-05 09:10 | -35.30796 | 149.19152 | 1873 ft | 1 kts | 277° |
| 2026-05-05 09:10 | -35.30801 | 149.19171 | 1873 ft | 2 kts | 277° |
| 2026-05-05 09:10 | -35.30803 | 149.19190 | 1873 ft | 2 kts | 279° |
| 2026-05-05 09:11 | -35.30805 | 149.19210 | 1874 ft | 2 kts | 278° |
| 2026-05-05 09:11 | -35.30807 | 149.19223 | 1874 ft | 1 kts | 279° |
| 2026-05-05 09:11 | -35.30804 | 149.19235 | 1874 ft | 2 kts | 213° |
| 2026-05-05 09:11 | -35.30796 | 149.19238 | 1874 ft | 1 kts | 172° |
| 2026-05-05 09:12 | -35.30792 | 149.19238 | 1874 ft | 0 kts | 179° |
| 2026-05-05 09:13 | -35.30793 | 149.19238 | 1874 ft | 0 kts | 178° |
| 2026-05-05 09:13 | -35.30859 | 149.19240 | 1874 ft | 13 kts | 179° |
| 2026-05-05 09:13 | -35.30967 | 149.19239 | 1874 ft | 17 kts | 181° |
| 2026-05-05 09:13 | -35.31099 | 149.19233 | 1874 ft | 20 kts | 183° |
| 2026-05-05 09:14 | -35.31258 | 149.19236 | 1874 ft | 22 kts | 180° |
| 2026-05-05 09:14 | -35.31428 | 149.19265 | 1873 ft | 22 kts | 141° |
| 2026-05-05 09:14 | -35.31459 | 149.19442 | 1878 ft | 17 kts | 73° |
| 2026-05-05 09:14 | -35.31454 | 149.19455 | 1878 ft | 0 kts | 41° |
| 2026-05-05 09:15 | -35.31416 | 149.19456 | 1878 ft | 20 kts | 356° |
| 2026-05-05 09:15 | -35.30991 | 149.19444 | 1878 ft | 99 kts | 0° |
| 2026-05-05 09:15 | -35.29848 | 149.19448 | 1985 ft | 173 kts | 1° |
| 2026-05-05 09:16 | -35.28351 | 149.19451 | 2745 ft | 187 kts | 2° |
| 2026-05-05 09:16 | -35.26998 | 149.20114 | 3413 ft | 199 kts | 40° |
| 2026-05-05 09:16 | -35.25796 | 149.21431 | 3977 ft | 222 kts | 33° |
| 2026-05-05 09:16 | -35.24406 | 149.22320 | 4404 ft | 241 kts | 19° |
| 2026-05-05 09:17 | -35.22566 | 149.23048 | 5081 ft | 255 kts | 14° |
| 2026-05-05 09:17 | -35.20645 | 149.23699 | 5908 ft | 262 kts | 13° |
| 2026-05-05 09:17 | -35.18719 | 149.24335 | 6725 ft | 268 kts | 13° |
| 2026-05-05 09:17 | -35.16676 | 149.25007 | 7560 ft | 273 kts | 12° |
| 2026-05-05 09:18 | -35.14762 | 149.25636 | 8303 ft | 278 kts | 12° |
| 2026-05-05 09:18 | -35.12645 | 149.26332 | 9086 ft | 284 kts | 12° |
| 2026-05-05 09:18 | -35.10361 | 149.27082 | 9885 ft | 290 kts | 12° |
| 2026-05-05 09:18 | -35.08067 | 149.27834 | 10545 ft | 301 kts | 12° |
| 2026-05-05 09:19 | -35.05911 | 149.28537 | 10654 ft | 325 kts | 12° |
| 2026-05-05 09:19 | -35.03773 | 149.29237 | 10731 ft | 346 kts | 12° |
| 2026-05-05 09:19 | -35.01361 | 149.30029 | 10988 ft | 360 kts | 13° |
| 2026-05-05 09:19 | -34.98992 | 149.30808 | 11432 ft | 366 kts | 13° |
| 2026-05-05 09:20 | -34.96364 | 149.31672 | 11958 ft | 371 kts | 13° |
| 2026-05-05 09:20 | -34.93817 | 149.32510 | 12484 ft | 374 kts | 13° |
| 2026-05-05 09:20 | -34.91300 | 149.33340 | 12985 ft | 377 kts | 13° |
| 2026-05-05 09:20 | -34.88998 | 149.34097 | 13434 ft | 380 kts | 12° |
| 2026-05-05 09:21 | -34.86438 | 149.34937 | 13912 ft | 383 kts | 12° |
| 2026-05-05 09:21 | -34.83786 | 149.35806 | 14394 ft | 386 kts | 12° |
| 2026-05-05 09:21 | -34.81080 | 149.36691 | 14868 ft | 389 kts | 12° |
| 2026-05-05 09:21 | -34.78190 | 149.37656 | 15356 ft | 394 kts | 15° |
| 2026-05-05 09:22 | -34.75316 | 149.39236 | 15824 ft | 403 kts | 30° |
| 2026-05-05 09:22 | -34.72964 | 149.41833 | 16290 ft | 411 kts | 52° |
| 2026-05-05 09:22 | -34.71265 | 149.45194 | 16770 ft | 414 kts | 61° |
| 2026-05-05 09:22 | -34.69794 | 149.48559 | 17119 ft | 418 kts | 62° |
| 2026-05-05 09:23 | -34.68348 | 149.51908 | 17212 ft | 420 kts | 62° |
| 2026-05-05 09:23 | -34.66822 | 149.55427 | 17209 ft | 420 kts | 62° |
| 2026-05-05 09:23 | -34.65448 | 149.58585 | 17210 ft | 419 kts | 62° |
| 2026-05-05 09:23 | -34.64006 | 149.61889 | 17209 ft | 419 kts | 62° |
| 2026-05-05 09:24 | -34.62509 | 149.65315 | 17208 ft | 419 kts | 61° |
| 2026-05-05 09:24 | -34.61016 | 149.68726 | 17210 ft | 419 kts | 61° |
| 2026-05-05 09:24 | -34.59435 | 149.72336 | 17209 ft | 419 kts | 61° |
| 2026-05-05 09:24 | -34.57852 | 149.75943 | 17209 ft | 419 kts | 61° |
| 2026-05-05 09:25 | -34.56321 | 149.79428 | 17209 ft | 419 kts | 61° |
| 2026-05-05 09:25 | -34.54807 | 149.82868 | 17209 ft | 419 kts | 61° |
| 2026-05-05 09:25 | -34.53280 | 149.86336 | 17206 ft | 419 kts | 61° |
| 2026-05-05 09:25 | -34.51698 | 149.89922 | 17203 ft | 419 kts | 61° |
| 2026-05-05 09:26 | -34.50187 | 149.93343 | 17198 ft | 419 kts | 61° |
| 2026-05-05 09:26 | -34.48683 | 149.96747 | 17191 ft | 420 kts | 61° |
| 2026-05-05 09:26 | -34.47319 | 149.99828 | 17184 ft | 420 kts | 61° |
| 2026-05-05 09:26 | -34.45858 | 150.03128 | 17176 ft | 420 kts | 61° |
| 2026-05-05 09:27 | -34.44490 | 150.06213 | 17169 ft | 420 kts | 61° |
| 2026-05-05 09:27 | -34.42991 | 150.09591 | 17163 ft | 420 kts | 61° |
| 2026-05-05 09:27 | -34.41412 | 150.13147 | 17159 ft | 420 kts | 61° |
| 2026-05-05 09:27 | -34.39851 | 150.16657 | 17156 ft | 420 kts | 61° |
| 2026-05-05 09:28 | -34.38287 | 150.20172 | 17155 ft | 420 kts | 61° |
| 2026-05-05 09:28 | -34.36756 | 150.23609 | 17155 ft | 420 kts | 61° |
| 2026-05-05 09:28 | -34.35337 | 150.26791 | 17155 ft | 420 kts | 61° |
| 2026-05-05 09:28 | -34.33795 | 150.30244 | 17155 ft | 420 kts | 61° |
| 2026-05-05 09:29 | -34.32199 | 150.33816 | 17155 ft | 420 kts | 61° |
| 2026-05-05 09:29 | -34.30662 | 150.37252 | 17155 ft | 420 kts | 61° |
| 2026-05-05 09:29 | -34.29091 | 150.40760 | 17155 ft | 420 kts | 61° |
| 2026-05-05 09:29 | -34.27658 | 150.43959 | 16797 ft | 421 kts | 61° |
| 2026-05-05 09:30 | -34.26125 | 150.47383 | 15186 ft | 425 kts | 61° |
| 2026-05-05 09:30 | -34.24656 | 150.50663 | 13670 ft | 409 kts | 61° |
| 2026-05-05 09:30 | -34.23306 | 150.53683 | 13454 ft | 374 kts | 61° |
| 2026-05-05 09:30 | -34.22004 | 150.56591 | 12600 ft | 369 kts | 62° |
| 2026-05-05 09:31 | -34.20806 | 150.59264 | 12134 ft | 356 kts | 62° |
| 2026-05-05 09:31 | -34.19577 | 150.62004 | 11397 ft | 359 kts | 62° |
| 2026-05-05 09:31 | -34.18394 | 150.64641 | 10827 ft | 345 kts | 62° |
| 2026-05-05 09:31 | -34.17277 | 150.67127 | 10636 ft | 325 kts | 61° |
| 2026-05-05 09:32 | -34.16181 | 150.69564 | 10583 ft | 317 kts | 61° |
| 2026-05-05 09:32 | -34.15032 | 150.72118 | 10450 ft | 326 kts | 61° |
| 2026-05-05 09:32 | -34.13917 | 150.74594 | 10303 ft | 324 kts | 61° |
| 2026-05-05 09:32 | -34.12768 | 150.77143 | 10047 ft | 316 kts | 61° |
| 2026-05-05 09:33 | -34.11683 | 150.79548 | 9169 ft | 313 kts | 62° |
| 2026-05-05 09:33 | -34.10606 | 150.81933 | 9000 ft | 311 kts | 62° |
| 2026-05-05 09:33 | -34.09515 | 150.84356 | 8994 ft | 318 kts | 62° |
| 2026-05-05 09:33 | -34.08523 | 150.86565 | 8989 ft | 317 kts | 62° |
| 2026-05-05 09:34 | -34.07469 | 150.88908 | 8989 ft | 316 kts | 62° |
| 2026-05-05 09:34 | -34.06439 | 150.91194 | 8625 ft | 310 kts | 62° |
| 2026-05-05 09:34 | -34.05409 | 150.93477 | 8340 ft | 298 kts | 62° |
| 2026-05-05 09:34 | -34.04510 | 150.95470 | 7911 ft | 295 kts | 62° |
| 2026-05-05 09:35 | -34.03536 | 150.97627 | 7427 ft | 292 kts | 62° |
| 2026-05-05 09:35 | -34.00818 | 151.01107 | 6407 ft | 287 kts | 22° |
| 2026-05-05 09:35 | -33.98961 | 151.01946 | 5948 ft | 283 kts | 18° |
| 2026-05-05 09:36 | -33.97100 | 151.02727 | 5434 ft | 282 kts | 18° |
| 2026-05-05 09:36 | -33.95256 | 151.03512 | 5023 ft | 277 kts | 19° |
| 2026-05-05 09:36 | -33.93442 | 151.04293 | 5001 ft | 277 kts | 19° |
| 2026-05-05 09:36 | -33.91599 | 151.05091 | 4989 ft | 281 kts | 19° |
| 2026-05-05 09:37 | -33.89755 | 151.05892 | 4990 ft | 279 kts | 19° |
| 2026-05-05 09:37 | -33.87918 | 151.06691 | 4992 ft | 278 kts | 19° |
| 2026-05-05 09:37 | -33.86085 | 151.07486 | 4992 ft | 278 kts | 18° |
| 2026-05-05 09:37 | -33.84264 | 151.08275 | 4989 ft | 273 kts | 18° |
| 2026-05-05 09:38 | -33.82537 | 151.09025 | 4881 ft | 255 kts | 18° |
| 2026-05-05 09:38 | -33.81106 | 151.09645 | 4742 ft | 237 kts | 18° |
| 2026-05-05 09:38 | -33.79589 | 151.10302 | 4545 ft | 223 kts | 18° |
| 2026-05-05 09:38 | -33.78139 | 151.10897 | 4164 ft | 219 kts | 15° |
| 2026-05-05 09:39 | -33.76784 | 151.11714 | 3723 ft | 220 kts | 41° |
| 2026-05-05 09:39 | -33.75960 | 151.13235 | 3280 ft | 219 kts | 75° |
| 2026-05-05 09:39 | -33.75551 | 151.14970 | 2979 ft | 213 kts | 63° |
| 2026-05-05 09:39 | -33.74850 | 151.16536 | 3130 ft | 214 kts | 73° |
| 2026-05-05 09:40 | -33.74715 | 151.18229 | 3511 ft | 189 kts | 108° |
| 2026-05-05 09:40 | -33.75351 | 151.19331 | 3870 ft | 148 kts | 155° |
| 2026-05-05 09:40 | -33.76352 | 151.19514 | 3748 ft | 145 kts | 191° |
| 2026-05-05 09:40 | -33.77373 | 151.19315 | 3273 ft | 149 kts | 195° |
| 2026-05-05 09:41 | -33.78235 | 151.18959 | 3035 ft | 134 kts | 205° |
| 2026-05-05 09:41 | -33.79052 | 151.18387 | 2953 ft | 132 kts | 212° |
| 2026-05-05 09:41 | -33.79844 | 151.17894 | 3096 ft | 131 kts | 203° |
| 2026-05-05 09:41 | -33.80654 | 151.17538 | 3109 ft | 136 kts | 199° |
| 2026-05-05 09:42 | -33.81552 | 151.17185 | 2984 ft | 136 kts | 201° |
| 2026-05-05 09:42 | -33.82429 | 151.16767 | 2799 ft | 135 kts | 205° |
| 2026-05-05 09:42 | -33.83332 | 151.16296 | 2481 ft | 135 kts | 203° |
| 2026-05-05 09:42 | -33.84240 | 151.15887 | 2162 ft | 133 kts | 201° |
| 2026-05-05 09:43 | -33.85153 | 151.15553 | 1690 ft | 135 kts | 195° |
| 2026-05-05 09:43 | -33.86094 | 151.15476 | 1300 ft | 132 kts | 178° |
| 2026-05-05 09:43 | -33.86964 | 151.15672 | 922 ft | 131 kts | 150° |
| 2026-05-05 09:43 | -33.87843 | 151.16210 | 673 ft | 153 kts | 175° |
| 2026-05-05 09:44 | -33.88805 | 151.16236 | 1041 ft | 125 kts | 178° |
| 2026-05-05 09:44 | -33.89718 | 151.16342 | 451 ft | 131 kts | 171° |
| 2026-05-05 09:44 | -33.90710 | 151.16620 | 967 ft | 127 kts | 164° |
| 2026-05-05 09:44 | -33.91546 | 151.16856 | 784 ft | 141 kts | 172° |
| 2026-05-05 09:45 | -33.92535 | 151.17070 | 239 ft | 142 kts | 169° |
| 2026-05-05 09:45 | -33.93530 | 151.17314 | 31 ft | 142 kts | 169° |
| 2026-05-05 09:45 | -33.94356 | 151.17523 | 23 ft | 91 kts | 164° |
| 2026-05-05 09:45 | -33.94763 | 151.17632 | 23 ft | 33 kts | 168° |
| 2026-05-05 09:46 | -33.94865 | 151.17660 | 22 ft | 10 kts | 167° |
| 2026-05-05 09:46 | -33.95012 | 151.17702 | 22 ft | 32 kts | 168° |
| 2026-05-05 09:46 | -33.95150 | 151.17813 | 19 ft | 17 kts | 89° |
| 2026-05-05 09:46 | -33.95147 | 151.17850 | 20 ft | 0 kts | 82° |
| 2026-05-05 09:48 | -33.95146 | 151.17862 | 20 ft | 4 kts | 79° |
| 2026-05-05 09:49 | -33.95124 | 151.17919 | 20 ft | 9 kts | 41° |
| 2026-05-05 09:49 | -33.95048 | 151.17929 | 22 ft | 12 kts | 351° |
| 2026-05-05 09:49 | -33.94958 | 151.17906 | 25 ft | 16 kts | 347° |
| 2026-05-05 09:49 | -33.94841 | 151.17874 | 26 ft | 20 kts | 348° |
| 2026-05-05 09:50 | -33.94695 | 151.17838 | 26 ft | 25 kts | 348° |
| 2026-05-05 09:50 | -33.94561 | 151.17803 | 26 ft | 3 kts | 349° |
| 2026-05-05 09:50 | -33.94549 | 151.17800 | 26 ft | 7 kts | 349° |
| 2026-05-05 09:51 | -33.94432 | 151.17766 | 24 ft | 23 kts | 345° |
| 2026-05-05 09:51 | -33.94288 | 151.17721 | 21 ft | 22 kts | 346° |
| 2026-05-05 09:51 | -33.94143 | 151.17676 | 15 ft | 21 kts | 346° |
| 2026-05-05 09:51 | -33.94002 | 151.17635 | 10 ft | 19 kts | 347° |
| 2026-05-05 09:52 | -33.93939 | 151.17619 | 9 ft | 0 kts | 348° |
| 2026-05-05 09:52 | -33.93938 | 151.17619 | 9 ft | 1 kts | 348° |
| 2026-05-05 09:52 | -33.93901 | 151.17620 | 9 ft | 8 kts | 16° |
| 2026-05-05 09:53 | -33.93854 | 151.17694 | 10 ft | 13 kts | 69° |
| 2026-05-05 09:53 | -33.93786 | 151.17784 | 9 ft | 17 kts | 13° |
| 2026-05-05 09:53 | -33.93656 | 151.17809 | 12 ft | 16 kts | 11° |
| 2026-05-05 09:53 | -33.93557 | 151.17829 | 15 ft | 11 kts | 0° |
| 2026-05-05 09:54 | -33.93527 | 151.17777 | 13 ft | 0 kts | 282° |
| 2026-05-05 09:54 | -33.93526 | 151.17776 | 13 ft | 0 kts | 282° |